createdAt,value
2019-04-21T00:00:35.526Z,13.50
2019-04-21T00:01:38.757Z,13.20
2019-04-21T00:02:37.744Z,12.20
2019-04-21T00:03:40.772Z,13.20
2019-04-21T00:04:48.446Z,12.30
2019-04-21T00:05:52.402Z,13.20
2019-04-21T00:06:56.971Z,13.00
2019-04-21T00:07:52.808Z,12.80
2019-04-21T00:08:56.474Z,12.70
2019-04-21T00:10:16.731Z,13.10
2019-04-21T00:10:56.713Z,16.20
2019-04-21T00:11:55.706Z,13.40
2019-04-21T00:12:53.337Z,13.00
2019-04-21T00:13:46.992Z,15.50
2019-04-21T00:14:46.073Z,13.20
2019-04-21T00:15:40.799Z,12.80
2019-04-21T00:16:43.223Z,13.80
2019-04-21T00:17:34.740Z,13.20
2019-04-21T00:18:41.778Z,12.90
2019-04-21T00:19:36.703Z,13.20
2019-04-21T00:20:40.910Z,13.40
2019-04-21T00:21:40.435Z,14.30
2019-04-21T00:22:45.487Z,12.50
2019-04-21T00:23:49.938Z,14.60
2019-04-21T00:24:46.218Z,12.90
2019-04-21T00:25:46.017Z,13.30
2019-04-21T00:26:50.808Z,13.70
2019-04-21T00:27:47.816Z,16.10
2019-04-21T00:29:02.276Z,15.60
2019-04-21T00:29:49.870Z,14.20
2019-04-21T00:30:50.927Z,13.50
2019-04-21T00:31:45.837Z,13.40
2019-04-21T00:32:46.040Z,16.20
2019-04-21T00:33:35.624Z,13.90
2019-04-21T00:34:32.141Z,13.80
2019-04-21T00:35:42.595Z,13.50
2019-04-21T00:36:42.850Z,13.80
2019-04-21T00:37:53.412Z,13.20
2019-04-21T00:39:00.411Z,13.10
2019-04-21T00:40:53.872Z,14.00
2019-04-21T00:41:53.736Z,14.50
2019-04-21T00:42:48.905Z,15.00
2019-04-21T00:43:44.764Z,14.40
2019-04-21T00:44:44.288Z,14.20
2019-04-21T00:45:41.809Z,15.00
2019-04-21T00:46:44.882Z,16.10
2019-04-21T00:47:46.308Z,15.30
2019-04-21T00:48:54.037Z,15.50
2019-04-21T00:49:52.715Z,14.60
2019-04-21T00:51:03.359Z,15.50
2019-04-21T00:52:17.519Z,14.70
2019-04-21T00:52:58.233Z,23.40
2019-04-21T00:53:51.149Z,16.40
2019-04-21T00:54:57.816Z,15.90
2019-04-21T00:55:53.443Z,17.50
2019-04-21T00:56:56.959Z,21.20
2019-04-21T00:58:56.085Z,23.30
2019-04-21T00:59:52.583Z,23.60
2019-04-21T01:00:51.128Z,24.90
2019-04-21T01:01:47.718Z,27.50
2019-04-21T01:03:55.120Z,23.60
2019-04-21T01:04:49.510Z,23.40
2019-04-21T01:05:52.864Z,24.70
2019-04-21T01:06:55.645Z,22.60
2019-04-21T01:07:46.990Z,22.60
2019-04-21T01:08:46.785Z,23.30
2019-04-21T01:09:45.330Z,25.90
2019-04-21T01:10:38.354Z,25.80
2019-04-21T01:11:51.462Z,20.80
2019-04-21T01:12:49.563Z,18.50
2019-04-21T01:13:51.749Z,18.70
2019-04-21T01:14:58.250Z,19.20
2019-04-21T01:16:56.051Z,19.30
2019-04-21T01:17:53.259Z,21.40
2019-04-21T01:18:51.871Z,17.70
2019-04-21T01:19:46.888Z,16.80
2019-04-21T01:20:27.576Z,16.60
2019-04-21T01:21:27.487Z,16.00
2019-04-21T01:22:27.450Z,16.00
2019-04-21T01:23:27.586Z,15.20
2019-04-21T01:24:33.061Z,15.60
2019-04-21T01:25:32.127Z,14.80
2019-04-21T01:26:39.320Z,16.90
2019-04-21T01:27:50.768Z,14.60
2019-04-21T01:28:44.838Z,15.00
2019-04-21T01:29:46.018Z,16.30
2019-04-21T01:30:45.143Z,17.70
2019-04-21T01:31:42.125Z,14.60
2019-04-21T01:32:48.174Z,14.50
2019-04-21T01:33:50.674Z,14.80
2019-04-21T01:34:45.422Z,14.30
2019-04-21T01:35:50.982Z,14.80
2019-04-21T01:36:45.797Z,14.10
2019-04-21T01:37:52.455Z,14.10
2019-04-21T01:38:48.304Z,15.40
2019-04-21T01:39:46.957Z,16.70
2019-04-21T01:40:45.050Z,13.20
2019-04-21T01:41:52.549Z,16.80
2019-04-21T01:42:49.425Z,16.20
2019-04-21T01:43:45.142Z,15.70
2019-04-21T01:44:46.206Z,15.00
2019-04-21T01:45:44.841Z,16.20
2019-04-21T01:46:42.251Z,15.20
2019-04-21T01:47:40.890Z,16.50
2019-04-21T01:48:40.017Z,15.70
2019-04-21T01:49:37.071Z,15.90
2019-04-21T01:50:40.908Z,16.60
2019-04-21T01:51:59.679Z,18.40
2019-04-21T01:52:50.236Z,17.40
2019-04-21T01:53:48.314Z,19.70
2019-04-21T01:54:48.112Z,16.40
2019-04-21T01:55:43.134Z,16.30
2019-04-21T01:56:46.557Z,18.30
2019-04-21T01:57:42.639Z,17.60
2019-04-21T01:58:36.317Z,15.40
2019-04-21T01:59:34.958Z,18.50
2019-04-21T02:00:39.020Z,16.00
2019-04-21T02:01:46.035Z,18.20
2019-04-21T02:02:47.698Z,16.10
2019-04-21T02:04:47.429Z,17.30
2019-04-21T02:05:56.991Z,16.80
2019-04-21T02:06:45.613Z,19.30
2019-04-21T02:07:47.448Z,17.00
2019-04-21T02:08:41.828Z,16.40
2019-04-21T02:09:42.003Z,17.00
2019-04-21T02:10:47.972Z,17.60
2019-04-21T02:11:53.354Z,19.00
2019-04-21T02:12:48.819Z,17.50
2019-04-21T02:13:50.209Z,19.60
2019-04-21T02:14:54.417Z,17.50
2019-04-21T02:15:48.935Z,16.20
2019-04-21T02:16:43.424Z,15.90
2019-04-21T02:17:45.896Z,17.00
2019-04-21T02:18:39.097Z,19.50
2019-04-21T02:19:37.824Z,18.10
2019-04-21T02:20:34.190Z,17.30
2019-04-21T02:21:38.288Z,17.00
2019-04-21T02:22:57.499Z,16.30
2019-04-21T02:23:50.925Z,17.30
2019-04-21T02:24:53.372Z,16.90
2019-04-21T02:25:44.193Z,18.20
2019-04-21T02:26:41.527Z,17.60
2019-04-21T02:27:42.874Z,17.00
2019-04-21T02:28:54.267Z,17.20
2019-04-21T02:29:49.761Z,17.40
2019-04-21T02:31:03.006Z,16.20
2019-04-21T02:32:00.360Z,17.00
2019-04-21T02:35:04.209Z,15.90
2019-04-21T02:39:00.271Z,18.70
2019-04-21T02:40:01.542Z,18.00
2019-04-21T02:42:01.747Z,20.00
2019-04-21T02:43:02.743Z,19.60
2019-04-21T02:43:56.083Z,19.10
2019-04-21T02:44:51.698Z,17.90
2019-04-21T02:46:54.261Z,22.20
2019-04-21T02:47:59.105Z,19.30
2019-04-21T02:48:56.440Z,18.70
2019-04-21T02:50:01.944Z,18.10
2019-04-21T02:51:04.750Z,17.40
2019-04-21T02:51:54.885Z,19.40
2019-04-21T02:54:28.787Z,17.20
2019-04-21T02:54:54.042Z,17.30
2019-04-21T02:55:51.220Z,17.10
2019-04-21T02:56:53.429Z,17.70
2019-04-21T02:57:49.795Z,17.80
2019-04-21T02:58:51.197Z,21.50
2019-04-21T03:00:06.894Z,16.20
2019-04-21T03:00:59.670Z,17.50
2019-04-21T03:02:04.494Z,18.50
2019-04-21T03:02:55.380Z,16.30
2019-04-21T03:04:53.364Z,16.60
2019-04-21T03:05:52.982Z,17.70
2019-04-21T03:06:56.363Z,15.90
2019-04-21T03:07:55.457Z,17.40
2019-04-21T03:09:45.936Z,18.40
2019-04-21T03:10:56.778Z,19.00
2019-04-21T03:12:01.508Z,17.90
2019-04-21T03:12:44.117Z,19.10
2019-04-21T03:14:58.183Z,16.90
2019-04-21T03:16:04.978Z,17.70
2019-04-21T03:16:40.577Z,18.90
2019-04-21T03:17:48.717Z,17.20
2019-04-21T03:18:52.502Z,18.20
2019-04-21T03:19:51.945Z,16.60
2019-04-21T03:20:53.252Z,18.00
2019-04-21T03:21:50.599Z,17.70
2019-04-21T03:23:16.634Z,18.90
2019-04-21T03:25:04.545Z,16.20
2019-04-21T03:29:08.375Z,17.60
2019-04-21T03:35:25.944Z,17.90
2019-04-21T03:36:24.603Z,20.40
2019-04-21T03:37:42.511Z,19.40
2019-04-21T03:38:43.137Z,16.90
2019-04-21T03:39:52.779Z,18.40
2019-04-21T03:40:40.959Z,21.10
2019-04-21T03:42:01.886Z,18.60
2019-04-21T03:43:52.632Z,19.70
2019-04-21T03:44:45.313Z,17.00
2019-04-21T03:46:47.524Z,17.80
2019-04-21T03:47:43.514Z,17.30
2019-04-21T03:48:51.692Z,19.60
2019-04-21T03:49:56.434Z,17.50
2019-04-21T03:50:56.317Z,17.80
2019-04-21T03:51:50.530Z,17.40
2019-04-21T03:52:58.895Z,16.90
2019-04-21T03:54:53.789Z,16.30
2019-04-21T03:56:59.200Z,17.60
2019-04-21T03:58:05.518Z,18.30
2019-04-21T03:59:48.897Z,17.30
2019-04-21T04:01:52.425Z,20.20
2019-04-21T04:02:55.238Z,18.10
2019-04-21T04:04:49.876Z,19.30
2019-04-21T04:05:59.659Z,18.90
2019-04-21T04:06:58.765Z,20.70
2019-04-21T04:07:49.949Z,19.50
2019-04-21T04:08:49.995Z,19.50
2019-04-21T04:09:44.757Z,20.60
2019-04-21T04:10:50.371Z,21.60
2019-04-21T04:11:44.187Z,19.80
2019-04-21T04:12:48.413Z,20.60
2019-04-21T04:13:56.313Z,20.60
2019-04-21T04:16:47.723Z,18.40
2019-04-21T04:17:40.460Z,18.60
2019-04-21T04:21:03.606Z,20.10
2019-04-21T04:21:47.756Z,19.30
2019-04-21T04:22:48.171Z,19.90
2019-04-21T04:23:45.622Z,20.60
2019-04-21T04:25:43.025Z,18.20
2019-04-21T04:27:01.519Z,18.50
2019-04-21T04:28:46.009Z,19.60
2019-04-21T04:29:39.929Z,18.90
2019-04-21T04:30:45.422Z,19.10
2019-04-21T04:31:53.454Z,18.20
2019-04-21T04:33:51.876Z,18.70
2019-04-21T04:35:52.541Z,19.00
2019-04-21T04:37:47.058Z,20.40
2019-04-21T04:38:50.146Z,18.70
2019-04-21T04:39:51.680Z,19.80
2019-04-21T04:40:39.298Z,20.40
2019-04-21T04:41:54.998Z,20.10
2019-04-21T04:42:46.228Z,18.70
2019-04-21T04:43:46.161Z,22.40
2019-04-21T04:45:44.193Z,18.80
2019-04-21T04:46:44.182Z,20.80
2019-04-21T04:47:47.055Z,20.80
2019-04-21T04:48:43.411Z,20.90
2019-04-21T04:52:09.415Z,20.50
2019-04-21T04:52:37.824Z,21.40
2019-04-21T04:55:39.302Z,20.70
2019-04-21T04:56:38.936Z,26.30
2019-04-21T04:57:51.268Z,21.90
2019-04-21T04:59:10.752Z,20.60
2019-04-21T05:00:01.176Z,20.60
2019-04-21T05:01:47.865Z,21.80
2019-04-21T05:02:46.331Z,20.70
2019-04-21T05:04:46.010Z,22.90
2019-04-21T05:05:45.110Z,21.20
2019-04-21T05:07:42.887Z,21.70
2019-04-21T05:08:52.453Z,21.50
2019-04-21T05:09:44.675Z,22.20
2019-04-21T05:10:52.888Z,22.60
2019-04-21T05:11:44.492Z,22.10
2019-04-21T05:13:43.520Z,21.90
2019-04-21T05:14:39.268Z,23.70
2019-04-21T05:15:37.726Z,21.90
2019-04-21T05:18:50.349Z,23.10
2019-04-21T05:19:34.726Z,22.00
2019-04-21T05:20:29.811Z,24.30
2019-04-21T05:22:37.501Z,24.20
2019-04-21T05:23:31.597Z,23.20
2019-04-21T05:24:25.571Z,23.10
2019-04-21T05:25:23.693Z,21.60
2019-04-21T05:26:22.010Z,22.70
2019-04-21T05:27:23.509Z,22.30
2019-04-21T05:28:19.832Z,22.60
2019-04-21T05:29:21.016Z,22.50
2019-04-21T05:31:33.044Z,21.40
2019-04-21T05:32:36.207Z,22.10
2019-04-21T05:33:32.175Z,23.80
2019-04-21T05:34:27.325Z,25.10
2019-04-21T05:35:26.360Z,22.40
2019-04-21T05:36:27.823Z,21.90
2019-04-21T05:37:25.927Z,22.40
2019-04-21T05:38:22.295Z,23.60
2019-04-21T05:39:23.395Z,21.70
2019-04-21T05:40:24.781Z,27.00
2019-04-21T05:41:18.428Z,22.00
2019-04-21T05:42:22.246Z,24.50
2019-04-21T05:43:28.419Z,23.10
2019-04-21T05:44:36.206Z,22.20
2019-04-21T05:45:38.192Z,22.60
2019-04-21T05:46:25.504Z,22.00
2019-04-21T05:47:35.404Z,23.50
2019-04-21T05:48:31.677Z,22.50
2019-04-21T05:49:22.251Z,21.00
2019-04-21T05:50:23.867Z,24.70
2019-04-21T05:51:28.732Z,23.30
2019-04-21T05:52:24.068Z,23.60
2019-04-21T05:53:34.372Z,22.90
2019-04-21T05:54:31.122Z,24.60
2019-04-21T05:55:34.206Z,22.30
2019-04-21T05:56:32.589Z,21.60
2019-04-21T05:57:25.405Z,24.00
2019-04-21T05:58:27.248Z,22.30
2019-04-21T05:59:26.252Z,22.30
2019-04-21T06:00:39.380Z,21.30
2019-04-21T06:01:36.020Z,23.80
2019-04-21T06:02:46.476Z,23.20
2019-04-21T06:03:43.080Z,21.40
2019-04-21T06:04:45.060Z,22.20
2019-04-21T06:06:34.190Z,22.80
2019-04-21T06:07:28.817Z,22.00
2019-04-21T06:08:28.649Z,21.70
2019-04-21T06:09:27.418Z,22.00
2019-04-21T06:10:31.459Z,21.50
2019-04-21T06:11:25.897Z,22.60
2019-04-21T06:12:31.591Z,22.50
2019-04-21T06:13:48.218Z,22.40
2019-04-21T06:14:30.486Z,21.90
2019-04-21T06:15:30.199Z,22.40
2019-04-21T06:16:31.865Z,22.70
2019-04-21T06:17:29.791Z,22.20
2019-04-21T06:18:22.395Z,22.60
2019-04-21T06:19:30.966Z,22.10
2019-04-21T06:20:27.093Z,23.00
2019-04-21T06:21:38.554Z,21.90
2019-04-21T06:22:36.033Z,22.10
2019-04-21T06:23:24.151Z,23.10
2019-04-21T06:24:21.539Z,20.50
2019-04-21T06:27:28.013Z,21.30
2019-04-21T06:28:28.270Z,21.90
2019-04-21T06:29:23.480Z,20.60
2019-04-21T06:30:29.003Z,21.70
2019-04-21T06:32:38.151Z,21.00
2019-04-21T06:33:32.245Z,21.50
2019-04-21T06:34:24.772Z,21.50
2019-04-21T06:35:35.993Z,22.60
2019-04-21T06:36:36.344Z,20.30
2019-04-21T06:37:39.714Z,20.30
2019-04-21T06:38:38.050Z,21.70
2019-04-21T06:39:22.998Z,21.40
2019-04-21T06:40:30.895Z,21.40
2019-04-21T06:42:23.924Z,20.10
2019-04-21T06:44:22.684Z,20.70
2019-04-21T06:45:31.325Z,21.10
2019-04-21T06:46:33.576Z,20.30
2019-04-21T06:47:32.442Z,23.30
2019-04-21T06:48:30.507Z,21.90
2019-04-21T06:49:23.911Z,20.70
2019-04-21T06:50:27.114Z,20.70
2019-04-21T06:51:27.950Z,20.20
2019-04-21T06:52:44.689Z,20.80
2019-04-21T06:53:36.231Z,20.30
2019-04-21T06:54:23.393Z,20.40
2019-04-21T06:56:20.501Z,19.40
2019-04-21T06:57:23.170Z,21.70
2019-04-21T06:58:22.440Z,19.70
2019-04-21T06:59:25.271Z,20.30
2019-04-21T07:00:19.530Z,20.00
2019-04-21T07:01:25.134Z,19.20
2019-04-21T07:02:39.908Z,18.90
2019-04-21T07:06:23.925Z,19.20
2019-04-21T07:07:26.389Z,18.80
2019-04-21T07:08:30.823Z,18.70
2019-04-21T07:10:22.771Z,18.30
2019-04-21T07:11:19.907Z,18.90
2019-04-21T07:12:19.160Z,18.20
2019-04-21T07:13:15.594Z,18.20
2019-04-21T07:14:37.974Z,18.70
2019-04-21T07:15:25.369Z,17.90
2019-04-21T07:16:25.443Z,19.30
2019-04-21T07:17:24.661Z,18.40
2019-04-21T07:18:25.310Z,18.20
2019-04-21T07:20:17.335Z,18.90
2019-04-21T07:21:23.532Z,19.70
2019-04-21T07:22:24.488Z,18.30
2019-04-21T07:23:24.045Z,18.30
2019-04-21T07:24:26.039Z,18.50
2019-04-21T07:25:23.876Z,17.80
2019-04-21T07:26:22.239Z,18.50
2019-04-21T07:27:22.228Z,18.10
2019-04-21T07:28:21.962Z,17.90
2019-04-21T07:29:21.957Z,19.80
2019-04-21T07:30:24.331Z,17.20
2019-04-21T07:31:19.001Z,20.80
2019-04-21T07:32:19.037Z,17.70
2019-04-21T07:33:41.522Z,18.10
2019-04-21T07:34:36.248Z,17.90
2019-04-21T07:35:28.118Z,17.40
2019-04-21T07:36:21.848Z,16.70
2019-04-21T07:37:17.367Z,16.80
2019-04-21T07:38:17.981Z,17.90
2019-04-21T07:39:18.519Z,17.30
2019-04-21T07:40:14.950Z,17.10
2019-04-21T07:41:09.670Z,17.10
2019-04-21T07:42:13.745Z,16.80
2019-04-21T07:43:10.777Z,17.90
2019-04-21T07:44:14.983Z,19.40
2019-04-21T07:45:13.088Z,15.90
2019-04-21T07:46:10.689Z,17.60
2019-04-21T07:47:17.079Z,17.50
2019-04-21T07:48:19.253Z,17.20
2019-04-21T07:49:12.456Z,16.50
2019-04-21T07:50:14.788Z,17.50
2019-04-21T07:51:18.874Z,16.50
2019-04-21T07:52:18.755Z,15.90
2019-04-21T07:53:21.854Z,15.80
2019-04-21T07:54:23.272Z,16.30
2019-04-21T07:56:06.511Z,16.10
2019-04-21T07:57:21.331Z,15.80
2019-04-21T07:58:17.823Z,15.90
2019-04-21T07:59:23.897Z,16.40
2019-04-21T08:01:19.933Z,16.10
2019-04-21T08:03:16.139Z,17.50
2019-04-21T08:04:33.177Z,16.20
2019-04-21T08:06:20.667Z,18.10
2019-04-21T08:07:26.514Z,16.40
2019-04-21T08:08:14.322Z,15.90
2019-04-21T08:09:13.650Z,17.30
2019-04-21T08:10:10.467Z,16.50
2019-04-21T08:11:10.885Z,16.40
2019-04-21T08:12:09.539Z,17.10
2019-04-21T08:13:27.347Z,16.30
2019-04-21T08:14:18.144Z,15.30
2019-04-21T08:15:24.957Z,16.20
2019-04-21T08:16:17.416Z,15.20
2019-04-21T08:17:14.757Z,16.80
2019-04-21T08:18:16.660Z,16.70
2019-04-21T08:19:13.091Z,18.00
2019-04-21T08:20:13.789Z,15.50
2019-04-21T08:21:17.820Z,15.90
2019-04-21T08:22:15.536Z,15.10
2019-04-21T08:23:13.270Z,14.90
2019-04-21T08:24:18.233Z,15.70
2019-04-21T08:25:18.244Z,15.00
2019-04-21T08:26:30.813Z,15.10
2019-04-21T08:27:18.880Z,15.00
2019-04-21T08:28:09.074Z,15.10
2019-04-21T08:29:21.456Z,16.20
2019-04-21T08:30:11.522Z,15.80
2019-04-21T08:31:18.422Z,16.90
2019-04-21T08:32:17.541Z,14.30
2019-04-21T08:33:26.246Z,15.90
2019-04-21T08:34:17.841Z,14.30
2019-04-21T08:35:38.427Z,14.50
2019-04-21T08:36:18.530Z,14.90
2019-04-21T08:37:11.990Z,14.30
2019-04-21T08:38:16.510Z,13.80
2019-04-21T08:39:14.020Z,15.50
2019-04-21T08:40:17.699Z,14.50
2019-04-21T08:41:15.211Z,15.00
2019-04-21T08:42:13.206Z,17.00
2019-04-21T08:43:09.227Z,14.60
2019-04-21T08:44:10.651Z,14.40
2019-04-21T08:45:15.057Z,14.50
2019-04-21T08:46:13.735Z,13.90
2019-04-21T08:47:12.854Z,14.60
2019-04-21T08:48:12.149Z,13.80
2019-04-21T08:49:08.117Z,14.20
2019-04-21T08:50:11.245Z,14.10
2019-04-21T08:51:24.515Z,13.20
2019-04-21T08:52:23.289Z,13.20
2019-04-21T08:53:19.840Z,14.40
2019-04-21T08:54:17.015Z,13.80
2019-04-21T08:55:12.232Z,14.10
2019-04-21T08:56:34.204Z,14.50
2019-04-21T08:57:16.693Z,14.50
2019-04-21T08:58:22.643Z,14.50
2019-04-21T09:00:16.799Z,14.10
2019-04-21T09:01:17.785Z,13.80
2019-04-21T09:02:08.430Z,14.00
2019-04-21T09:03:14.617Z,14.30
2019-04-21T09:04:19.877Z,14.80
2019-04-21T09:05:11.600Z,13.70
2019-04-21T09:06:19.027Z,14.30
2019-04-21T09:07:12.951Z,13.10
2019-04-21T09:08:10.572Z,12.40
2019-04-21T09:09:14.365Z,12.90
2019-04-21T09:10:09.453Z,13.20
2019-04-21T09:11:06.949Z,12.60
2019-04-21T09:12:10.915Z,13.10
2019-04-21T09:13:07.437Z,14.40
2019-04-21T09:14:07.060Z,12.60
2019-04-21T09:15:08.390Z,12.90
2019-04-21T09:16:06.561Z,13.10
2019-04-21T09:17:01.676Z,13.60
2019-04-21T09:18:04.858Z,12.60
2019-04-21T09:19:04.468Z,12.80
2019-04-21T09:20:13.469Z,13.90
2019-04-21T09:21:11.343Z,12.60
2019-04-21T09:22:07.038Z,13.90
2019-04-21T09:23:06.724Z,12.50
2019-04-21T09:24:11.604Z,12.10
2019-04-21T09:25:17.304Z,12.40
2019-04-21T09:26:07.353Z,12.20
2019-04-21T09:27:07.110Z,12.00
2019-04-21T09:28:08.858Z,12.80
2019-04-21T09:29:03.426Z,12.30
2019-04-21T09:29:54.015Z,11.80
2019-04-21T09:30:57.294Z,11.70
2019-04-21T09:31:51.715Z,14.40
2019-04-21T09:32:53.039Z,12.90
2019-04-21T09:33:51.983Z,11.90
2019-04-21T09:34:50.669Z,13.10
2019-04-21T09:35:54.606Z,13.50
2019-04-21T09:36:53.131Z,11.70
2019-04-21T09:37:55.286Z,12.40
2019-04-21T09:38:58.690Z,11.50
2019-04-21T09:39:52.106Z,11.10
2019-04-21T09:40:51.359Z,11.10
2019-04-21T09:41:49.883Z,11.40
2019-04-21T09:42:56.893Z,10.80
2019-04-21T09:43:52.136Z,10.70
2019-04-21T09:44:53.346Z,11.30
2019-04-21T09:45:49.364Z,12.10
2019-04-21T09:46:54.008Z,12.00
2019-04-21T09:47:57.189Z,12.10
2019-04-21T09:48:55.417Z,11.60
2019-04-21T09:49:47.762Z,12.10
2019-04-21T09:50:48.041Z,11.60
2019-04-21T09:51:48.279Z,12.20
2019-04-21T09:52:54.757Z,10.80
2019-04-21T09:53:56.494Z,11.70
2019-04-21T09:54:56.610Z,10.80
2019-04-21T09:55:54.207Z,10.60
2019-04-21T09:56:57.133Z,10.50
2019-04-21T09:57:53.562Z,10.20
2019-04-21T09:58:51.686Z,10.60
2019-04-21T09:59:57.080Z,10.70
2019-04-21T10:01:00.043Z,10.70
2019-04-21T10:01:59.179Z,9.60
2019-04-21T10:02:56.784Z,9.90
2019-04-21T10:03:51.056Z,9.30
2019-04-21T10:04:48.187Z,10.10
2019-04-21T10:05:47.576Z,10.40
2019-04-21T10:06:47.614Z,10.30
2019-04-21T10:07:46.600Z,10.00
2019-04-21T10:08:50.371Z,10.80
2019-04-21T10:09:47.777Z,10.20
2019-04-21T10:10:46.855Z,10.60
2019-04-21T10:11:46.339Z,11.10
2019-04-21T10:12:47.685Z,10.20
2019-04-21T10:13:46.357Z,9.80
2019-04-21T10:14:47.272Z,9.90
2019-04-21T10:15:46.306Z,9.70
2019-04-21T10:16:46.017Z,11.10
2019-04-21T10:17:47.346Z,9.50
2019-04-21T10:18:46.126Z,10.30
2019-04-21T10:19:46.365Z,10.60
2019-04-21T10:20:46.903Z,10.60
2019-04-21T10:21:46.589Z,10.00
2019-04-21T10:22:46.770Z,9.50
2019-04-21T10:23:45.755Z,9.10
2019-04-21T10:24:46.623Z,8.90
2019-04-21T10:25:46.367Z,9.00
2019-04-21T10:26:53.468Z,9.70
2019-04-21T10:27:45.437Z,9.90
2019-04-21T10:28:46.774Z,9.50
2019-04-21T10:29:46.775Z,9.20
2019-04-21T10:30:45.123Z,8.80
2019-04-21T10:31:45.114Z,8.40
2019-04-21T10:32:46.040Z,9.10
2019-04-21T10:33:46.169Z,9.10
2019-04-21T10:34:52.836Z,11.00
2019-04-21T10:35:44.781Z,10.80
2019-04-21T10:36:44.905Z,10.30
2019-04-21T10:37:56.345Z,10.30
2019-04-21T10:38:48.730Z,10.00
2019-04-21T10:39:45.351Z,10.30
2019-04-21T10:40:45.558Z,10.70
2019-04-21T10:41:45.688Z,11.00
2019-04-21T10:42:44.312Z,10.90
2019-04-21T10:43:45.178Z,10.10
2019-04-21T10:44:45.197Z,10.20
2019-04-21T10:45:44.216Z,12.10
2019-04-21T10:46:46.691Z,10.00
2019-04-21T10:47:45.010Z,11.90
2019-04-21T10:48:43.911Z,9.80
2019-04-21T10:49:50.868Z,14.00
2019-04-21T10:50:45.195Z,44.30
2019-04-21T10:51:43.814Z,14.80
2019-04-21T10:52:44.817Z,10.80
2019-04-21T10:53:45.249Z,10.20
2019-04-21T10:55:10.100Z,11.20
2019-04-21T10:55:56.681Z,9.60
2019-04-21T10:56:44.444Z,39.40
2019-04-21T10:57:44.306Z,9.00
2019-04-21T10:58:44.490Z,9.10
2019-04-21T10:59:48.814Z,8.90
2019-04-21T11:00:43.991Z,9.00
2019-04-21T11:01:43.163Z,8.70
2019-04-21T11:02:43.353Z,9.30
2019-04-21T11:03:44.902Z,8.80
2019-04-21T11:04:51.104Z,8.20
2019-04-21T11:05:42.936Z,8.70
2019-04-21T11:06:42.723Z,8.60
2019-04-21T11:07:58.941Z,8.90
2019-04-21T11:08:45.711Z,9.50
2019-04-21T11:09:42.605Z,10.90
2019-04-21T11:10:43.705Z,11.20
2019-04-21T11:11:51.585Z,9.10
2019-04-21T11:12:43.164Z,9.00
2019-04-21T11:13:42.263Z,8.90
2019-04-21T11:14:43.107Z,8.60
2019-04-21T11:15:43.156Z,8.90
2019-04-21T11:16:43.346Z,8.70
2019-04-21T11:17:43.519Z,8.80
2019-04-21T11:18:42.208Z,19.10
2019-04-21T11:19:43.136Z,9.80
2019-04-21T11:20:42.782Z,9.70
2019-04-21T11:21:42.897Z,19.00
2019-04-21T11:22:41.756Z,11.10
2019-04-21T11:23:41.596Z,10.90
2019-04-21T11:24:42.911Z,9.00
2019-04-21T11:25:42.166Z,8.90
2019-04-21T11:26:42.199Z,9.00
2019-04-21T11:27:44.838Z,8.90
2019-04-21T11:28:41.273Z,8.80
2019-04-21T11:29:41.521Z,8.40
2019-04-21T11:30:42.345Z,9.70
2019-04-21T11:31:41.122Z,10.50
2019-04-21T11:32:43.094Z,8.50
2019-04-21T11:33:41.034Z,9.20
2019-04-21T11:34:41.106Z,9.50
2019-04-21T11:35:41.362Z,8.00
2019-04-21T11:36:40.745Z,9.20
2019-04-21T11:37:42.048Z,9.00
2019-04-21T11:38:57.117Z,8.40
2019-04-21T11:39:51.219Z,9.00
2019-04-21T11:40:40.488Z,8.40
2019-04-21T11:41:41.549Z,15.00
2019-04-21T11:42:41.754Z,7.70
2019-04-21T11:43:41.321Z,8.50
2019-04-21T11:44:41.585Z,8.00
2019-04-21T11:45:40.271Z,10.00
2019-04-21T11:46:40.380Z,8.40
2019-04-21T11:47:40.672Z,8.40
2019-04-21T11:48:40.076Z,7.50
2019-04-21T11:49:41.079Z,8.00
2019-04-21T11:50:41.244Z,7.60
2019-04-21T11:51:40.773Z,9.10
2019-04-21T11:52:40.854Z,8.40
2019-04-21T11:53:40.999Z,8.10
2019-04-21T11:54:40.650Z,8.10
2019-04-21T11:55:43.605Z,9.60
2019-04-21T11:56:39.417Z,7.80
2019-04-21T11:57:42.783Z,10.00
2019-04-21T11:58:39.546Z,8.10
2019-04-21T11:59:39.646Z,7.40
2019-04-21T12:00:39.927Z,7.40
2019-04-21T12:01:39.439Z,7.70
2019-04-21T12:02:39.563Z,8.90
2019-04-21T12:03:39.970Z,7.70
2019-04-21T12:04:39.271Z,7.40
2019-04-21T12:05:41.830Z,7.40
2019-04-21T12:06:44.433Z,7.80
2019-04-21T12:07:38.703Z,7.60
2019-04-21T12:08:43.972Z,8.20
2019-04-21T12:09:39.577Z,7.90
2019-04-21T12:10:41.831Z,7.50
2019-04-21T12:11:41.032Z,8.40
2019-04-21T12:12:39.260Z,7.80
2019-04-21T12:13:38.330Z,7.50
2019-04-21T12:14:39.593Z,7.30
2019-04-21T12:15:38.926Z,7.40
2019-04-21T12:16:39.154Z,7.20
2019-04-21T12:17:39.439Z,7.80
2019-04-21T12:18:38.806Z,7.50
2019-04-21T12:19:38.767Z,7.10
2019-04-21T12:20:37.865Z,7.30
2019-04-21T12:21:50.532Z,7.00
2019-04-21T12:22:38.983Z,7.00
2019-04-21T12:23:38.479Z,6.60
2019-04-21T12:24:38.133Z,7.10
2019-04-21T12:25:38.926Z,6.70
2019-04-21T12:26:37.947Z,6.60
2019-04-21T12:27:38.030Z,7.00
2019-04-21T12:28:37.614Z,7.30
2019-04-21T12:29:37.791Z,8.40
2019-04-21T12:30:37.763Z,7.80
2019-04-21T12:31:37.158Z,7.70
2019-04-21T12:32:38.128Z,8.80
2019-04-21T12:33:38.136Z,8.80
2019-04-21T12:34:36.958Z,7.60
2019-04-21T12:35:37.747Z,7.80
2019-04-21T12:36:38.026Z,7.90
2019-04-21T12:37:37.149Z,8.50
2019-04-21T12:38:43.689Z,8.80
2019-04-21T12:39:36.927Z,7.60
2019-04-21T12:40:36.775Z,7.90
2019-04-21T12:41:36.521Z,7.90
2019-04-21T12:42:38.851Z,7.40
2019-04-21T12:43:36.965Z,8.10
2019-04-21T12:44:37.178Z,7.50
2019-04-21T12:45:36.250Z,7.50
2019-04-21T12:46:36.195Z,7.40
2019-04-21T12:47:36.120Z,7.60
2019-04-21T12:48:36.042Z,8.30
2019-04-21T12:49:36.004Z,8.30
2019-04-21T12:50:36.053Z,8.50
2019-04-21T12:51:36.012Z,7.60
2019-04-21T12:52:36.003Z,8.30
2019-04-21T12:53:35.974Z,7.20
2019-04-21T12:54:35.883Z,7.50
2019-04-21T12:55:40.614Z,8.10
2019-04-21T12:56:35.746Z,7.50
2019-04-21T12:57:35.469Z,7.90
2019-04-21T12:58:35.407Z,7.60
2019-04-21T12:59:36.331Z,8.00
2019-04-21T13:00:36.672Z,7.80
2019-04-21T13:01:35.230Z,8.20
2019-04-21T13:02:35.824Z,8.00
2019-04-21T13:03:35.072Z,7.40
2019-04-21T13:04:35.784Z,7.50
2019-04-21T13:05:35.787Z,7.30
2019-04-21T13:06:34.892Z,7.30
2019-04-21T13:07:35.422Z,7.10
2019-04-21T13:08:45.634Z,9.20
2019-04-21T13:09:36.128Z,7.70
2019-04-21T13:10:35.943Z,7.60
2019-04-21T13:11:35.073Z,8.70
2019-04-21T13:12:35.274Z,8.10
2019-04-21T13:13:35.627Z,8.40
2019-04-21T13:14:35.761Z,8.30
2019-04-21T13:15:35.496Z,8.30
2019-04-21T13:16:34.250Z,8.30
2019-04-21T13:17:35.297Z,8.00
2019-04-21T13:18:35.071Z,7.80
2019-04-21T13:19:34.033Z,8.10
2019-04-21T13:20:34.216Z,8.20
2019-04-21T13:21:34.263Z,7.50
2019-04-21T13:22:34.190Z,8.30
2019-04-21T13:23:34.977Z,7.70
2019-04-21T13:24:33.756Z,8.20
2019-04-21T13:25:33.914Z,8.30
2019-04-21T13:26:42.930Z,7.70
2019-04-21T13:27:34.577Z,7.60
2019-04-21T13:28:34.562Z,7.60
2019-04-21T13:29:34.451Z,7.40
2019-04-21T13:30:33.301Z,7.70
2019-04-21T13:31:34.211Z,7.30
2019-04-21T13:32:33.314Z,7.40
2019-04-21T13:33:33.649Z,7.50
2019-04-21T13:34:33.791Z,7.00
2019-04-21T13:35:33.240Z,7.20
2019-04-21T13:36:33.775Z,8.20
2019-04-21T13:37:33.284Z,8.30
2019-04-21T13:38:37.766Z,8.80
2019-04-21T13:39:57.119Z,7.60
2019-04-21T13:40:49.998Z,7.50
2019-04-21T13:41:47.363Z,7.90
2019-04-21T13:42:40.231Z,8.20
2019-04-21T13:43:32.971Z,7.40
2019-04-21T13:44:33.083Z,7.50
2019-04-21T13:45:32.330Z,7.50
2019-04-21T13:46:32.266Z,7.60
2019-04-21T13:47:32.490Z,6.50
2019-04-21T13:48:32.748Z,8.50
2019-04-21T13:49:32.082Z,7.30
2019-04-21T13:50:33.215Z,7.90
2019-04-21T13:51:31.946Z,7.20
2019-04-21T13:52:33.173Z,7.40
2019-04-21T13:53:33.095Z,7.80
2019-04-21T13:54:31.730Z,7.30
2019-04-21T13:55:31.929Z,7.30
2019-04-21T13:56:32.337Z,6.80
2019-04-21T13:57:32.495Z,7.90
2019-04-21T13:58:32.650Z,7.30
2019-04-21T13:59:31.940Z,7.30
2019-04-21T14:00:31.795Z,7.40
2019-04-21T14:01:31.796Z,7.80
2019-04-21T14:02:31.205Z,7.10
2019-04-21T14:03:31.407Z,7.80
2019-04-21T14:04:31.501Z,7.40
2019-04-21T14:05:31.005Z,7.30
2019-04-21T14:06:32.153Z,7.40
2019-04-21T14:07:32.101Z,7.70
2019-04-21T14:08:31.319Z,7.80
2019-04-21T14:09:40.276Z,9.80
2019-04-21T14:10:31.488Z,7.90